Flight Track Log - Related Links

Times and Time Zones

All times are in EST time to prevent confusion due to time zone crossing. See the DLH187 flight status page for this flight to view local times or setup timezone preferences in your user account.

Time Position Orientation Groundspeed Altitude Reporting Facility
EST Latitude Longitude Course Direction KTS MPH feet Rate Location/Type
Fri 07:28:00 AM 51.9263 12.0159 231° Southwest  Level Estimated
Fri 07:29:00 AM 51.8551 11.8769 230° Southwest  Level Estimated
Fri 07:30:00 AM 51.7837 11.7382 230° Southwest  Level Estimated
Fri 07:31:00 AM 51.7211 11.6173 230° Southwest  Level Estimated
Fri 07:32:00 AM 51.6584 11.4966 230° Southwest  Level Estimated
Fri 07:33:00 AM 51.5955 11.3764 230° Southwest  Level Estimated
Fri 07:34:00 AM 51.5326 11.2564 230° Southwest  Level Estimated
Fri 07:35:00 AM 51.4695 11.1368 230° Southwest  Level Estimated
Fri 07:36:00 AM 51.4063 11.0175 230° Southwest  Level Estimated
Fri 07:37:00 AM 51.3430 10.8986 230° Southwest  Level Estimated
Fri 07:38:00 AM 51.2795 10.7799 229° Southwest  Level Estimated
Fri 07:39:00 AM 51.2160 10.6616 229° Southwest  Level Estimated
Fri 07:40:00 AM 51.1523 10.5436 229° Southwest  Level Estimated
Fri 07:41:00 AM 51.0885 10.4260 229° Southwest  Level Estimated
Fri 07:42:00 AM 51.0246 10.3087 229° Southwest  Level Estimated
Fri 07:43:00 AM 50.9605 10.1917 229° Southwest  Level Estimated
Fri 07:44:00 AM 50.8964 10.0750 229° Southwest  Level Estimated
Fri 07:45:00 AM 50.8321 9.9586 229° Southwest  Level Estimated
Fri 07:46:00 AM 50.7677 9.8426 229° Southwest  Level Estimated
Fri 07:47:00 AM 50.7033 9.7269 229° Southwest  Level Estimated
Fri 07:48:00 AM 50.6386 9.6115 229° Southwest  Level Estimated
Fri 07:49:00 AM 50.5739 9.4964 228° Southwest  Level Estimated
Fri 07:50:00 AM 50.5091 9.3816 228° Southwest  Level Estimated
Fri 07:51:00 AM 50.4441 9.2672 228° Southwest  Level Estimated
Fri 07:52:00 AM 50.3791 9.1530 228° Southwest  Level Estimated
Fri 07:53:00 AM 50.3139 9.0392 228° Southwest  Level Estimated
Fri 07:54:00 AM 50.2486 8.9257 228° Southwest  Level Estimated
Fri 07:55:00 AM 50.1832 8.8125 228° Southwest  Level Estimated
Fri 07:56:00 AM 50.1177 8.6996 228° Southwest  Level Estimated
Fri 07:57:00 AM 50.0521 8.5870 228° Southwest  Level Estimated
Fri 07:58:00 AM 50.0264 8.5431 228° Southwest  Level Estimated
Fri 07:59:00 AM 50.0264 8.5431 73° East  Level Estimated
Fri 08:00:00 AM 50.0264 8.5431 73° East  Level Estimated
Fri 08:01:00 AM 50.0264 8.5431 73° East  Level Estimated
Fri 08:02:00 AM 50.0264 8.5431 73° East  Level Estimated
Fri 08:03:00 AM 50.0264 8.5431 73° East  Level Estimated
Fri 08:04:00 AM 50.0264 8.5431 73° East  Level Estimated
Fri 08:05:00 AM 50.0264 8.5431 73° East  Level Estimated
Fri 08:06:00 AM 50.0264 8.5431 73° East  Level Estimated
Fri 08:07:00 AM 50.0264 8.5431 73° East  Level Estimated
Fri 08:08:00 AM 50.0264 8.5431 73° East  Level Estimated
Fri 08:09:00 AM 50.0264 8.5431 73° East  Level Estimated
Fri 08:10:00 AM 50.0264 8.5431 73° East  Level Estimated
Fri 08:11:00 AM 50.0264 8.5431 73° East  Level Estimated
Fri 08:12:00 AM 50.0264 8.5431 73° East  Level Estimated
Fri 08:13:00 AM 50.0264 8.5431 73° East  Level Estimated
Fri 08:14:00 AM 50.0264 8.5431 73° East  Level Estimated
Fri 08:15:00 AM 50.0264 8.5431 73° East  Level Estimated

Login

Don't have an account? Register now (free) for customized features, flight alerts, and more!